createdAt,value
2022-12-19T00:39:52.852Z,72.12
2022-12-19T00:42:19.838Z,69.23
2022-12-19T00:44:48.848Z,65.47
2022-12-19T00:47:15.716Z,63.54
2022-12-19T00:49:43.209Z,62.29
2022-12-19T00:52:11.273Z,62.79
2022-12-19T00:54:38.326Z,62.62
2022-12-19T00:57:05.833Z,63.11
2022-12-19T00:59:32.916Z,63.04
2022-12-19T01:01:59.995Z,64.29
2022-12-19T01:04:28.538Z,63.14
2022-12-19T01:06:59.623Z,63.72
2022-12-19T01:09:32.363Z,63.63
2022-12-19T01:12:18.283Z,63.81
2022-12-19T01:14:45.199Z,65.22
2022-12-19T01:17:12.236Z,63.88
2022-12-19T01:19:44.047Z,61.81
2022-12-19T01:22:13.264Z,60.86
2022-12-19T01:24:40.231Z,60.48
2022-12-19T01:27:07.585Z,60.44
2022-12-19T01:29:34.769Z,60.93
2022-12-19T01:32:04.836Z,61.72
2022-12-19T01:34:31.960Z,61.58
2022-12-19T01:36:59.060Z,61.53
2022-12-19T01:39:26.858Z,62.14
2022-12-19T01:41:57.789Z,62.33
2022-12-19T01:44:25.747Z,62.89
2022-12-19T01:46:59.474Z,62.81
2022-12-19T01:49:31.479Z,62.87
2022-12-19T01:52:00.280Z,63.35
2022-12-19T01:54:29.974Z,63.35
2022-12-19T01:56:57.733Z,60.82
2022-12-19T01:59:45.681Z,59.97
2022-12-19T02:02:24.894Z,60.28
2022-12-19T02:04:51.831Z,60.18
2022-12-19T02:07:19.050Z,60.71
2022-12-19T02:09:47.172Z,61.59
2022-12-19T02:12:21.394Z,62.09
2022-12-19T02:14:48.401Z,62.94
2022-12-19T02:17:23.033Z,62.36
2022-12-19T02:20:22.637Z,63.30
2022-12-19T02:23:08.073Z,63.42
2022-12-19T02:25:49.231Z,61.50
2022-12-19T02:28:55.955Z,58.53
2022-12-19T02:31:30.523Z,59.32
2022-12-19T02:34:19.865Z,60.04
2022-12-19T02:37:02.934Z,59.87
2022-12-19T02:39:39.828Z,60.69
2022-12-19T02:42:06.773Z,62.05
2022-12-19T02:44:36.773Z,63.02
2022-12-19T02:47:05.784Z,62.51
2022-12-19T02:49:34.954Z,62.12
2022-12-19T02:52:20.545Z,61.75
2022-12-19T02:54:57.846Z,62.09
2022-12-19T02:57:30.848Z,62.38
2022-12-19T03:00:04.474Z,62.88
2022-12-19T03:02:41.841Z,60.42
2022-12-19T03:05:46.114Z,59.74
2022-12-19T03:08:38.777Z,59.19
2022-12-19T03:11:07.899Z,61.54
2022-12-19T03:13:44.427Z,61.98
2022-12-19T03:16:11.893Z,61.62
2022-12-19T03:18:38.971Z,61.56
2022-12-19T03:21:22.120Z,61.61
2022-12-19T03:23:49.534Z,62.07
2022-12-19T03:26:21.566Z,62.87
2022-12-19T03:28:51.459Z,63.43
2022-12-19T03:31:19.798Z,63.48
2022-12-19T03:33:46.781Z,63.00
2022-12-19T03:36:16.111Z,63.00
2022-12-19T03:38:44.008Z,62.65
2022-12-19T03:41:11.778Z,61.90
2022-12-19T03:43:38.671Z,62.39
2022-12-19T03:46:19.631Z,62.35
2022-12-19T03:48:48.357Z,62.06
2022-12-19T03:51:27.246Z,62.23
2022-12-19T03:54:00.980Z,62.66
2022-12-19T03:56:39.116Z,62.79
2022-12-19T03:59:21.384Z,62.43
2022-12-19T04:01:48.397Z,61.51
2022-12-19T04:04:15.631Z,61.68
2022-12-19T04:06:42.836Z,60.86
2022-12-19T04:09:09.821Z,60.86
2022-12-19T04:11:42.260Z,62.19
2022-12-19T04:14:12.408Z,62.43
2022-12-19T04:16:50.862Z,62.51
2022-12-19T04:19:25.527Z,62.95
2022-12-19T04:21:56.624Z,63.36
2022-12-19T04:24:26.484Z,64.21
2022-12-19T04:26:54.385Z,62.32
2022-12-19T04:29:21.353Z,59.76
2022-12-19T04:31:48.232Z,60.73
2022-12-19T04:34:17.657Z,61.30
2022-12-19T04:36:44.563Z,60.52
2022-12-19T04:39:11.584Z,60.33
2022-12-19T04:41:38.512Z,61.38
2022-12-19T04:44:05.529Z,62.18
2022-12-19T04:46:32.641Z,62.99
2022-12-19T04:48:59.523Z,63.14
2022-12-19T04:51:26.604Z,63.48
2022-12-19T04:53:53.455Z,62.37
2022-12-19T04:56:22.286Z,61.07
2022-12-19T04:58:49.132Z,59.98
2022-12-19T05:01:16.062Z,60.31
2022-12-19T05:03:43.218Z,60.50
2022-12-19T05:06:11.885Z,60.94
2022-12-19T05:08:40.348Z,61.64
2022-12-19T05:11:07.776Z,62.19
2022-12-19T05:13:34.793Z,62.78
2022-12-19T05:16:06.175Z,62.78
2022-12-19T05:18:33.927Z,61.12
2022-12-19T05:21:00.884Z,60.05
2022-12-19T05:23:27.838Z,60.87
2022-12-19T05:25:57.891Z,61.67
2022-12-19T05:28:24.875Z,62.08
2022-12-19T05:30:52.637Z,62.74
2022-12-19T05:33:19.713Z,63.51
2022-12-19T05:35:46.678Z,63.82
2022-12-19T05:38:13.626Z,62.36
2022-12-19T05:40:44.117Z,61.15
2022-12-19T05:43:10.931Z,61.22
2022-12-19T05:45:41.041Z,61.64
2022-12-19T05:48:09.509Z,62.16
2022-12-19T05:50:36.869Z,62.50
2022-12-19T05:53:08.969Z,63.06
2022-12-19T05:55:35.866Z,63.67
2022-12-19T05:58:02.810Z,62.91
2022-12-19T06:00:29.736Z,61.83
2022-12-19T06:02:56.721Z,61.65
2022-12-19T06:05:23.693Z,61.75
2022-12-19T06:07:51.001Z,62.20
2022-12-19T06:10:17.955Z,62.33
2022-12-19T06:12:44.804Z,62.99
2022-12-19T06:15:12.211Z,63.09
2022-12-19T06:17:39.116Z,62.18
2022-12-19T06:20:06.814Z,61.66
2022-12-19T06:22:34.318Z,61.62
2022-12-19T06:25:01.230Z,62.11
2022-12-19T06:27:28.082Z,62.14
2022-12-19T06:29:55.139Z,63.19
2022-12-19T06:32:22.025Z,63.64
2022-12-19T06:35:04.184Z,63.40
2022-12-19T06:37:31.637Z,62.11
2022-12-19T06:39:58.503Z,61.65
2022-12-19T06:42:25.765Z,61.97
2022-12-19T06:44:54.146Z,61.93
2022-12-19T06:47:22.061Z,62.40
2022-12-19T06:49:49.234Z,63.00
2022-12-19T06:52:16.663Z,64.06
2022-12-19T06:54:43.511Z,63.88
2022-12-19T06:57:10.551Z,62.36
2022-12-19T06:59:37.764Z,61.57
2022-12-19T07:02:27.917Z,61.33
2022-12-19T07:04:57.920Z,61.90
2022-12-19T07:07:24.754Z,62.72
2022-12-19T07:09:51.562Z,62.88
2022-12-19T07:12:18.496Z,63.59
2022-12-19T07:14:50.209Z,63.65
2022-12-19T07:17:19.970Z,62.12
2022-12-19T07:19:46.841Z,61.14
2022-12-19T07:22:13.757Z,61.39
2022-12-19T07:24:40.616Z,61.21
2022-12-19T07:27:07.541Z,61.18
2022-12-19T07:29:34.637Z,61.38
2022-12-19T07:32:01.786Z,61.66
2022-12-19T07:34:30.173Z,62.16
2022-12-19T07:36:57.075Z,62.99
2022-12-19T07:39:24.382Z,61.81
2022-12-19T07:41:51.205Z,60.59
2022-12-19T07:44:26.693Z,59.92
2022-12-19T07:46:55.331Z,60.20
2022-12-19T07:49:22.931Z,60.67
2022-12-19T07:51:50.033Z,60.94
2022-12-19T07:54:16.924Z,61.30
2022-12-19T07:56:44.189Z,62.05
2022-12-19T07:59:12.949Z,62.49
2022-12-19T09:25:07.081Z,72.51
2022-12-19T09:27:53.726Z,68.64
2022-12-19T09:30:22.687Z,64.49
2022-12-19T09:32:49.686Z,62.36
2022-12-19T09:35:16.637Z,62.26
2022-12-19T09:37:43.547Z,62.57
2022-12-19T09:40:12.871Z,62.56
2022-12-19T09:42:58.004Z,63.12
2022-12-19T09:45:31.888Z,62.72
2022-12-19T09:48:01.364Z,63.01
2022-12-19T09:50:50.892Z,63.38
2022-12-19T09:53:25.399Z,63.65
2022-12-19T09:55:52.502Z,63.60
2022-12-19T09:58:32.288Z,63.69
2022-12-19T10:01:02.029Z,60.71
2022-12-19T10:03:40.305Z,60.40
2022-12-19T10:07:09.383Z,60.10
2022-12-19T10:09:20.262Z,60.72
2022-12-19T10:12:38.547Z,60.47
2022-12-19T10:15:16.382Z,60.63
2022-12-19T10:17:58.451Z,61.97
2022-12-19T10:20:38.879Z,61.68
2022-12-19T10:23:23.457Z,61.54
2022-12-19T10:25:52.721Z,61.10
2022-12-19T10:28:38.552Z,61.92
2022-12-19T10:31:23.029Z,62.66
2022-12-19T10:34:01.552Z,61.40
2022-12-19T10:36:55.987Z,59.32
2022-12-19T10:39:30.396Z,59.10
2022-12-19T10:42:37.338Z,59.22
2022-12-19T10:45:10.126Z,59.72
2022-12-19T10:47:37.403Z,60.43
2022-12-19T10:50:09.475Z,60.98
2022-12-19T10:53:11.106Z,61.25
2022-12-19T10:55:50.066Z,61.79
2022-12-19T10:58:24.407Z,62.09
2022-12-19T11:00:54.250Z,62.44
2022-12-19T11:03:21.482Z,63.64
2022-12-19T11:05:57.108Z,61.79
2022-12-19T11:08:32.159Z,59.33
2022-12-19T11:12:35.562Z,57.18
2022-12-19T11:19:44.457Z,54.99
2022-12-19T11:20:55.474Z,54.00
2022-12-19T11:28:07.108Z,53.91
2022-12-19T11:29:31.408Z,51.72
2022-12-19T11:30:07.044Z,51.47
2022-12-19T11:30:47.661Z,52.72
2022-12-19T11:33:28.123Z,50.17
2022-12-19T11:35:56.911Z,50.65
2022-12-19T11:38:32.133Z,49.85
2022-12-19T11:40:59.324Z,49.56
2022-12-19T11:43:46.631Z,49.76
2022-12-19T11:46:47.839Z,49.32
2022-12-19T11:49:17.698Z,49.74
2022-12-19T11:52:54.074Z,50.56
2022-12-19T11:55:26.835Z,50.27
2022-12-19T11:57:54.215Z,49.10
2022-12-19T12:00:23.180Z,47.81
2022-12-19T12:02:53.157Z,48.62
2022-12-19T12:05:35.091Z,49.22
2022-12-19T12:09:13.199Z,49.83
2022-12-19T12:16:34.938Z,50.33
2022-12-19T12:24:06.215Z,49.05
2022-12-19T12:26:30.554Z,48.72
2022-12-19T12:31:23.085Z,48.84
2022-12-19T12:31:52.577Z,49.14
2022-12-19T12:31:54.113Z,50.02
2022-12-19T12:31:57.585Z,48.89
2022-12-19T12:35:48.782Z,49.79
2022-12-19T12:38:48.169Z,49.65
2022-12-19T12:42:05.205Z,48.61
2022-12-19T12:47:25.868Z,47.93
2022-12-19T12:49:56.457Z,47.88
2022-12-19T12:52:27.692Z,48.39
2022-12-19T12:54:54.757Z,49.29
2022-12-19T12:57:42.102Z,49.93
2022-12-19T13:00:22.826Z,49.85
2022-12-19T13:02:57.054Z,49.48
2022-12-19T13:05:25.723Z,49.81
2022-12-19T13:07:53.925Z,48.81
2022-12-19T13:10:27.220Z,48.78
2022-12-19T13:13:02.194Z,48.31
2022-12-19T13:15:29.968Z,48.27
2022-12-19T13:17:56.893Z,47.07
2022-12-19T13:20:23.758Z,48.38
2022-12-19T13:23:01.097Z,49.32
2022-12-19T13:25:34.514Z,49.51
2022-12-19T13:28:01.422Z,49.69
2022-12-19T13:30:32.486Z,49.78
2022-12-19T13:33:19.488Z,51.00
2022-12-19T13:39:57.009Z,52.79
2022-12-19T13:41:47.728Z,53.44
2022-12-19T13:44:14.888Z,54.33
2022-12-19T13:46:45.299Z,55.15
2022-12-19T13:49:31.828Z,55.81
2022-12-19T13:52:01.439Z,56.48
2022-12-19T13:54:38.168Z,57.10
2022-12-19T14:00:21.834Z,57.78
2022-12-19T14:03:11.503Z,58.08
2022-12-19T14:06:14.665Z,58.16
2022-12-19T14:08:25.679Z,58.84
2022-12-19T14:11:39.309Z,59.32
2022-12-19T14:14:12.643Z,60.34
2022-12-19T14:16:45.554Z,61.34
2022-12-19T14:19:27.794Z,61.20
2022-12-19T14:22:09.572Z,61.26
2022-12-19T14:24:41.711Z,61.85
2022-12-19T14:30:30.532Z,63.54
2022-12-19T14:33:44.991Z,62.77
2022-12-19T14:36:12.266Z,60.20
2022-12-19T14:39:27.690Z,59.16
2022-12-19T14:41:39.503Z,58.68
2022-12-19T14:52:25.345Z,59.04
2022-12-19T14:54:01.314Z,59.10
2022-12-19T14:54:07.367Z,60.16
2022-12-19T14:54:28.276Z,60.81
2022-12-19T14:56:16.019Z,61.64
2022-12-19T14:58:54.462Z,62.04
2022-12-19T15:01:31.985Z,62.63
2022-12-19T15:04:47.662Z,62.85
2022-12-19T15:07:06.945Z,63.61
2022-12-19T15:11:08.037Z,63.75
2022-12-19T15:14:47.505Z,63.79
2022-12-19T15:16:02.554Z,62.51
2022-12-19T15:18:33.048Z,60.83
2022-12-19T15:21:04.954Z,60.04
2022-12-19T15:23:32.408Z,60.32
2022-12-19T15:26:07.088Z,61.14
2022-12-19T15:28:40.620Z,61.59
2022-12-19T15:31:32.443Z,62.25
2022-12-19T15:34:32.883Z,63.24
2022-12-19T15:36:46.387Z,63.46
2022-12-19T15:39:15.118Z,63.59
2022-12-19T15:41:42.328Z,63.74
2022-12-19T15:44:13.700Z,63.53
2022-12-19T15:46:48.156Z,63.98
2022-12-19T15:49:17.536Z,64.23
2022-12-19T15:51:44.964Z,64.18
2022-12-19T19:01:41.786Z,76.95
2022-12-19T19:04:12.159Z,74.38
2022-12-19T19:06:40.280Z,71.20
2022-12-19T19:09:16.148Z,68.63
2022-12-19T19:12:00.151Z,67.13
2022-12-19T19:14:27.063Z,66.76
2022-12-19T19:16:53.854Z,67.10
2022-12-19T19:19:22.149Z,67.42
2022-12-19T19:21:49.035Z,67.41
2022-12-19T19:24:17.657Z,67.66
2022-12-19T19:26:44.677Z,67.26
2022-12-19T19:29:13.682Z,65.64
2022-12-19T19:31:41.389Z,64.87
2022-12-19T19:34:11.582Z,64.96
2022-12-19T19:36:38.495Z,65.21
2022-12-19T19:39:05.344Z,65.41
2022-12-19T19:41:34.455Z,65.48
2022-12-19T19:44:01.455Z,65.75
2022-12-19T19:46:28.612Z,66.20
2022-12-19T19:48:55.614Z,66.53
2022-12-19T19:51:22.477Z,65.37
2022-12-19T19:53:49.393Z,64.47
2022-12-19T19:56:16.466Z,64.25
2022-12-19T19:58:43.392Z,64.52
2022-12-19T20:01:11.233Z,64.92
2022-12-19T20:03:40.193Z,65.33
2022-12-19T20:06:07.724Z,65.74
2022-12-19T20:08:40.155Z,66.18
2022-12-19T20:11:08.391Z,66.15
2022-12-19T20:13:35.376Z,65.15
2022-12-19T20:16:07.460Z,64.01
2022-12-19T20:18:35.416Z,63.62
2022-12-19T20:21:03.252Z,63.82
2022-12-19T20:23:34.131Z,64.62
2022-12-19T20:26:01.773Z,65.49
2022-12-19T20:28:30.079Z,65.83
2022-12-19T20:30:56.955Z,65.84
2022-12-19T20:33:24.608Z,65.33
2022-12-19T20:35:55.879Z,64.07
2022-12-19T20:38:22.772Z,63.79
2022-12-19T20:40:51.950Z,63.73
2022-12-19T20:43:18.798Z,64.24
2022-12-19T20:45:45.634Z,64.83
2022-12-19T20:48:12.804Z,65.36
2022-12-19T20:50:43.222Z,65.94
2022-12-19T20:53:10.646Z,66.25
2022-12-19T20:55:37.607Z,65.01
2022-12-19T20:58:04.652Z,63.93
2022-12-19T21:00:31.607Z,64.08
2022-12-19T21:05:52.508Z,65.05
2022-12-19T21:08:21.044Z,66.24
2022-12-19T21:10:48.382Z,67.03
2022-12-19T21:13:15.393Z,67.12
2022-12-19T21:15:42.325Z,65.17
2022-12-19T21:18:09.833Z,63.85
2022-12-19T21:20:37.365Z,63.64
2022-12-19T21:23:04.714Z,63.83
2022-12-19T21:25:32.131Z,64.42
2022-12-19T21:27:59.325Z,64.56
2022-12-19T21:30:26.259Z,64.71
2022-12-19T21:32:53.639Z,65.21
2022-12-19T21:35:20.588Z,64.43
2022-12-19T21:37:51.298Z,62.90
2022-12-19T21:40:19.210Z,63.04
2022-12-19T21:42:46.144Z,63.28
2022-12-19T21:45:14.915Z,63.80
2022-12-19T21:47:43.071Z,63.97
2022-12-19T21:50:11.246Z,64.17
2022-12-19T21:52:38.245Z,64.34
2022-12-19T21:55:06.038Z,63.07
2022-12-19T21:57:33.043Z,62.14
2022-12-19T21:59:59.940Z,62.24
2022-12-19T22:02:27.241Z,62.86
2022-12-19T22:04:54.293Z,63.48
2022-12-19T22:07:21.172Z,64.34
2022-12-19T22:09:48.075Z,65.07
2022-12-19T22:12:15.373Z,65.04
2022-12-19T22:14:43.540Z,63.80
2022-12-19T22:17:10.441Z,62.48
2022-12-19T22:19:37.446Z,62.27
2022-12-19T22:22:04.937Z,62.74
